Ana Sayfa
METAR-TAF:

METAR-TAF

Havaalanları :

Elista Havalimanı

Elista, Rusya

Enlem: 46-22N, Boylam: 044-20E, yükseklik: 150 m

Güncel hava durumu gözlemi

Rapor saat 12:30 UTC de 42 dakika önce yapıldı.
Rüzgar kuzey/kuzeybatıdan 23 kt
Sıcaklık -1°C
Nem 34%
Basınç 1023 hPa
Görüş mesafesi 10 km veya daha fazla
1500 m altında bulut yok ve kümülonimbus yok

METAR: URWI 191230Z 33012MPS CAVOK M01/M15 Q1023 R27/010060 TEMPO 33015G20MPS

Saat: 16:12 (13:12 UTC)

Tahmin

Rapor saat 11:00 UTC de 2 saat ve 12 dakika önce yapıldı.
Ayın 19'si saat 12 UTC'den ayın 19'si saat 21 UTC'ye kadar geçerli Tahmin
Rüzgar kuzeybatıdan 21 kt ve 31 kt'a kadar ani rüzgarlar
Görüş mesafesi 10 km veya daha fazla
1500 ft yükseklikte parçalı bulutlu
Geçici
ayın 19'si saat 12 UTC'den ayın 19'si saat 15 UTC'ye kadar
Rüzgar kuzey/kuzeybatıdan 25 kt ve 35 kt'a kadar ani rüzgarlar

TAF: URWI 191100Z 1912/1921 31011G16MPS 9999 SCT015 TEMPO 1912/1915 33013G18MPS

4.000'den fazla havaalanı için hava durumu gözlemleri ve tahminleri (METAR ve TAF raporları).

Kullanılabilir istasyonlar harita üzerinde sarı ve kırmızı noktalarla gösterilir.

İstasyonun adını görmek için fareyi noktanın üzerinde gezdirin.

Sonrasında hava gözlem ve tahminlerini görmek için tıklayın.

Haritayı değiştirmek için: yaklaştırmak için siyah artı işaretli yeşil düğmeye ve uzaklaştırmak için de eksi işaretli düğmeye hızla tıklayın; bitişik haritalar için yeşil okları kullanın.


METAR-TAF: